createdAt,value
2023-07-14T00:01:37.204Z,49.86
2023-07-14T00:03:58.237Z,49.96
2023-07-14T00:06:19.704Z,50.19
2023-07-14T00:08:41.331Z,50.55
2023-07-14T00:11:02.098Z,50.33
2023-07-14T00:13:23.098Z,49.98
2023-07-14T00:15:43.645Z,50.66
2023-07-14T00:18:20.471Z,50.81
2023-07-14T00:20:41.075Z,51.12
2023-07-14T00:23:01.563Z,52.05
2023-07-14T00:25:25.895Z,52.06
2023-07-14T00:27:46.978Z,51.69
2023-07-14T00:30:17.286Z,51.67
2023-07-14T00:32:38.519Z,52.12
2023-07-14T00:34:59.572Z,52.04
2023-07-14T00:37:20.331Z,51.95
2023-07-14T00:39:41.864Z,51.71
2023-07-14T00:42:05.049Z,52.15
2023-07-14T00:44:26.083Z,50.66
2023-07-14T00:46:47.273Z,50.08
2023-07-14T00:49:15.358Z,51.11
2023-07-14T00:51:37.236Z,50.91
2023-07-14T00:53:57.946Z,50.48
2023-07-14T00:56:40.329Z,50.62
2023-07-14T00:59:01.239Z,50.84
2023-07-14T01:01:26.603Z,50.78
2023-07-14T01:03:47.541Z,50.85
2023-07-14T01:06:17.619Z,50.83
2023-07-14T01:08:46.537Z,51.08
2023-07-14T01:11:07.193Z,51.08
2023-07-14T01:13:30.217Z,51.23
2023-07-14T01:15:52.600Z,51.39
2023-07-14T01:18:14.279Z,51.68
2023-07-14T01:20:38.398Z,51.42
2023-07-14T01:23:23.700Z,51.47
2023-07-14T01:26:14.300Z,52.17
2023-07-14T01:28:35.327Z,52.49
2023-07-14T01:30:55.987Z,52.52
2023-07-14T01:33:19.039Z,52.09
2023-07-14T01:35:43.859Z,52.04
2023-07-14T01:38:04.325Z,51.90
2023-07-14T01:40:25.975Z,51.62
2023-07-14T01:42:52.588Z,52.27
2023-07-14T01:45:17.372Z,52.38
2023-07-14T01:47:39.048Z,52.43
2023-07-14T01:50:01.289Z,52.17
2023-07-14T01:52:31.038Z,52.63
2023-07-14T01:54:58.603Z,52.13
2023-07-14T01:57:23.173Z,51.94
2023-07-14T01:59:55.904Z,52.17
2023-07-14T02:02:24.080Z,52.07
2023-07-14T02:04:48.129Z,51.98
2023-07-14T02:07:14.917Z,52.44
2023-07-14T02:09:35.415Z,52.08
2023-07-14T02:12:03.689Z,52.22
2023-07-14T02:14:28.908Z,52.18
2023-07-14T02:16:52.235Z,52.77
2023-07-14T02:19:22.350Z,52.72
2023-07-14T02:21:44.280Z,52.91
2023-07-14T02:24:05.754Z,53.06
2023-07-14T02:26:33.791Z,53.05
2023-07-14T02:28:56.992Z,52.96
2023-07-14T02:31:54.448Z,53.53
2023-07-14T02:34:16.813Z,53.32
2023-07-14T02:36:54.691Z,53.77
2023-07-14T02:39:15.136Z,53.65
2023-07-14T02:41:40.657Z,54.12
2023-07-14T02:44:05.659Z,54.51
2023-07-14T02:46:38.982Z,54.40
2023-07-14T02:49:00.055Z,54.73
2023-07-14T02:51:21.569Z,54.88
2023-07-14T02:53:42.332Z,55.25
2023-07-14T02:56:04.714Z,54.77
2023-07-14T02:58:25.724Z,54.98
2023-07-14T03:00:46.308Z,55.00
2023-07-14T03:03:07.464Z,55.63
2023-07-14T03:05:28.313Z,55.50
2023-07-14T03:07:49.309Z,55.87
2023-07-14T03:10:10.308Z,55.53
2023-07-14T03:12:30.741Z,55.03
2023-07-14T03:14:51.856Z,54.68
2023-07-14T03:17:13.232Z,54.85
2023-07-14T03:19:34.661Z,55.43
2023-07-14T03:21:55.244Z,54.93
2023-07-14T03:24:15.607Z,54.92
2023-07-14T03:26:36.115Z,55.12
2023-07-14T03:28:57.008Z,54.97
2023-07-14T03:31:17.464Z,55.76
2023-07-14T03:33:39.996Z,55.39
2023-07-14T03:36:10.757Z,54.75
2023-07-14T03:38:31.634Z,55.49
2023-07-14T03:40:52.082Z,55.59
2023-07-14T03:43:12.552Z,55.53
2023-07-14T03:45:34.483Z,55.61
2023-07-14T03:47:55.086Z,55.59
2023-07-14T03:50:16.652Z,55.26
2023-07-14T03:52:37.305Z,55.07
2023-07-14T03:54:57.830Z,55.38
2023-07-14T03:57:18.351Z,54.60
2023-07-14T03:59:38.803Z,54.71
2023-07-14T04:01:59.511Z,54.80
2023-07-14T04:04:21.713Z,54.92
2023-07-14T04:06:43.063Z,55.24
2023-07-14T04:09:03.554Z,55.30
2023-07-14T04:11:24.419Z,55.80
2023-07-14T04:13:45.198Z,55.75
2023-07-14T04:16:10.131Z,56.43
2023-07-14T04:18:31.940Z,56.51
2023-07-14T04:20:52.815Z,56.73
2023-07-14T04:23:13.473Z,55.90
2023-07-14T04:25:35.841Z,55.88
2023-07-14T04:27:56.335Z,55.68
2023-07-14T04:30:16.812Z,55.89
2023-07-14T04:32:37.433Z,55.90
2023-07-14T04:34:58.166Z,56.53
2023-07-14T04:37:18.672Z,56.13
2023-07-14T04:39:39.163Z,56.38
2023-07-14T04:42:00.380Z,56.04
2023-07-14T04:44:22.155Z,56.06
2023-07-14T04:46:44.161Z,56.54
2023-07-14T04:49:06.011Z,56.60
2023-07-14T04:51:28.134Z,56.22
2023-07-14T04:53:48.895Z,56.15
2023-07-14T04:56:09.482Z,56.42
2023-07-14T04:58:30.062Z,56.65
2023-07-14T05:00:50.858Z,56.45
2023-07-14T05:03:12.137Z,56.10
2023-07-14T05:05:33.566Z,56.22
2023-07-14T05:07:54.656Z,55.81
2023-07-14T05:10:19.984Z,56.00
2023-07-14T05:12:40.796Z,55.58
2023-07-14T05:15:06.779Z,56.00
2023-07-14T05:17:27.532Z,55.29
2023-07-14T05:19:47.974Z,55.50
2023-07-14T05:22:08.573Z,55.53
2023-07-14T05:24:29.490Z,55.67
2023-07-14T05:26:50.048Z,55.29
2023-07-14T05:29:11.451Z,54.90
2023-07-14T05:31:33.617Z,55.01
2023-07-14T05:33:54.827Z,55.19
2023-07-14T05:36:16.019Z,54.67
2023-07-14T05:38:37.569Z,55.14
2023-07-14T05:40:59.207Z,55.04
2023-07-14T05:43:20.095Z,54.91
2023-07-14T05:45:41.075Z,54.45
2023-07-14T05:48:02.221Z,53.80
2023-07-14T05:50:23.189Z,53.94
2023-07-14T05:52:44.008Z,53.71
2023-07-14T05:55:06.488Z,53.38
2023-07-14T05:57:27.054Z,53.28
2023-07-14T05:59:47.679Z,53.06
2023-07-14T06:02:14.593Z,52.43
2023-07-14T06:04:37.213Z,52.45
2023-07-14T06:06:58.350Z,52.28
2023-07-14T06:09:19.615Z,51.29
2023-07-14T06:11:41.146Z,50.40
2023-07-14T06:14:01.836Z,51.03
2023-07-14T06:16:23.278Z,51.64
2023-07-14T06:18:44.799Z,50.79
2023-07-14T06:21:05.297Z,50.46
2023-07-14T06:23:27.960Z,50.23
2023-07-14T06:25:48.841Z,50.19
2023-07-14T06:28:09.463Z,49.92
2023-07-14T06:30:29.861Z,49.91
2023-07-14T06:32:50.653Z,49.43
2023-07-14T06:35:11.669Z,49.21
2023-07-14T06:37:32.420Z,49.22
2023-07-14T06:39:54.260Z,48.08
2023-07-14T06:42:14.665Z,48.19
2023-07-14T06:44:35.096Z,47.89
2023-07-14T06:46:55.756Z,47.99
2023-07-14T06:49:22.114Z,47.92
2023-07-14T06:51:44.911Z,47.87
2023-07-14T06:54:05.538Z,47.06
2023-07-14T06:56:26.229Z,45.15
2023-07-14T06:58:46.642Z,45.42
2023-07-14T07:01:07.325Z,44.74
2023-07-14T07:03:28.402Z,44.19
2023-07-14T07:05:49.189Z,44.61
2023-07-14T07:08:14.547Z,44.62
2023-07-14T07:10:38.064Z,43.77
2023-07-14T07:12:58.810Z,42.93
2023-07-14T07:15:19.395Z,43.52
2023-07-14T07:17:40.382Z,43.72
2023-07-14T07:20:01.110Z,44.66
2023-07-14T07:22:21.977Z,44.21
2023-07-14T07:24:43.318Z,44.07
2023-07-14T07:27:04.222Z,42.49
2023-07-14T07:29:24.752Z,42.62
2023-07-14T07:31:45.332Z,42.34
2023-07-14T07:34:07.021Z,41.31
2023-07-14T07:36:28.885Z,40.40
2023-07-14T07:38:52.093Z,40.47
2023-07-14T07:41:18.122Z,39.44
2023-07-14T07:43:39.336Z,40.24
2023-07-14T07:45:59.765Z,39.36
2023-07-14T07:48:20.615Z,39.12
2023-07-14T07:50:40.960Z,39.06
2023-07-14T07:53:01.528Z,38.23
2023-07-14T07:55:22.255Z,38.45
2023-07-14T07:57:43.024Z,38.51
2023-07-14T08:00:08.084Z,38.14
2023-07-14T08:02:28.653Z,37.62
2023-07-14T08:04:50.900Z,36.68
2023-07-14T08:07:13.662Z,36.63
2023-07-14T08:09:35.446Z,37.79
2023-07-14T08:11:57.684Z,37.71
2023-07-14T08:14:20.140Z,37.41
2023-07-14T08:16:40.793Z,37.40
2023-07-14T08:19:03.057Z,36.77
2023-07-14T08:21:23.888Z,37.29
2023-07-14T08:23:45.754Z,36.48
2023-07-14T08:26:06.593Z,36.63
2023-07-14T08:28:28.375Z,36.33
2023-07-14T08:30:53.594Z,36.52
2023-07-14T08:33:14.331Z,36.31
2023-07-14T08:35:34.841Z,36.08
2023-07-14T08:37:55.513Z,36.31
2023-07-14T08:40:27.978Z,34.38
2023-07-14T08:43:22.153Z,35.66
2023-07-14T08:45:54.833Z,35.67
2023-07-14T08:48:47.166Z,35.02
2023-07-14T08:51:20.576Z,34.73
2023-07-14T08:53:46.200Z,35.63
2023-07-14T08:56:11.933Z,34.38
2023-07-14T08:58:41.446Z,34.77
2023-07-14T09:01:12.319Z,34.63
2023-07-14T09:03:51.588Z,34.11
2023-07-14T09:06:18.194Z,34.10
2023-07-14T09:08:38.958Z,34.29
2023-07-14T09:11:11.943Z,33.95
2023-07-14T09:13:42.135Z,33.13
2023-07-14T09:16:03.605Z,32.27
2023-07-14T09:18:37.673Z,32.93
2023-07-14T09:21:32.691Z,33.33
2023-07-14T09:24:20.246Z,32.37
2023-07-14T09:26:45.298Z,32.89
2023-07-14T09:29:14.074Z,33.11
2023-07-14T09:31:48.225Z,32.68
2023-07-14T09:34:16.080Z,32.10
2023-07-14T09:36:39.346Z,32.55
2023-07-14T09:39:05.707Z,31.11
2023-07-14T09:41:29.769Z,30.65
2023-07-14T09:43:50.924Z,31.05
2023-07-14T09:46:15.112Z,31.41
2023-07-14T09:48:44.190Z,31.23
2023-07-14T09:51:14.379Z,31.54
2023-07-14T09:53:38.119Z,30.89
2023-07-14T09:56:12.066Z,31.36
2023-07-14T09:58:35.623Z,30.85
2023-07-14T10:01:04.148Z,31.95
2023-07-14T10:03:43.778Z,30.77
2023-07-14T10:06:15.065Z,30.30
2023-07-14T10:08:45.888Z,30.06
2023-07-14T10:11:39.149Z,29.40
2023-07-14T10:14:01.281Z,30.73
2023-07-14T10:16:22.405Z,29.72
2023-07-14T10:18:54.242Z,30.02
2023-07-14T10:21:22.163Z,30.08
2023-07-14T10:23:56.927Z,28.84
2023-07-14T10:26:17.385Z,31.08
2023-07-14T10:28:40.221Z,28.97
2023-07-14T10:31:19.326Z,30.01
2023-07-14T10:33:59.714Z,27.75
2023-07-14T10:36:26.282Z,27.11
2023-07-14T10:38:59.023Z,27.66
2023-07-14T10:41:22.354Z,27.90
2023-07-14T10:43:49.408Z,28.39
2023-07-14T10:46:16.612Z,26.11
2023-07-14T10:48:53.807Z,26.24
2023-07-14T10:51:38.017Z,26.80
2023-07-14T10:54:07.135Z,26.98
2023-07-14T10:56:35.140Z,27.80
2023-07-14T10:59:00.491Z,28.32
2023-07-14T11:01:35.426Z,27.99
2023-07-14T11:04:21.085Z,27.82
2023-07-14T11:06:46.978Z,28.64
2023-07-14T11:09:12.640Z,27.40
2023-07-14T11:11:40.258Z,27.88
2023-07-14T11:14:38.779Z,27.99
2023-07-14T11:17:20.308Z,26.80
2023-07-14T11:20:10.810Z,27.33
2023-07-14T11:22:46.618Z,26.63
2023-07-14T11:25:40.509Z,27.76
2023-07-14T11:28:12.385Z,26.91
2023-07-14T11:30:40.858Z,27.25
2023-07-14T11:33:09.350Z,27.24
2023-07-14T11:35:50.016Z,27.21
2023-07-14T11:38:10.422Z,26.84
2023-07-14T11:40:38.643Z,28.16
2023-07-14T11:43:01.075Z,28.15
2023-07-14T11:45:25.303Z,27.61
2023-07-14T11:47:46.666Z,27.09
2023-07-14T11:50:25.856Z,28.02
2023-07-14T11:53:02.747Z,26.72
2023-07-14T11:55:25.164Z,26.34
2023-07-14T11:57:49.240Z,26.81
2023-07-14T12:00:27.790Z,27.37
2023-07-14T12:02:53.218Z,26.88
2023-07-14T12:05:14.188Z,26.10
2023-07-14T12:07:35.849Z,26.49
2023-07-14T12:10:22.714Z,26.77
2023-07-14T12:13:14.209Z,26.48
2023-07-14T12:16:01.270Z,26.43
2023-07-14T12:18:54.768Z,27.82
2023-07-14T12:21:15.712Z,26.00
2023-07-14T12:23:36.767Z,26.92
2023-07-14T12:26:14.041Z,25.63
2023-07-14T12:28:37.504Z,27.00
2023-07-14T12:31:01.970Z,26.12
2023-07-14T12:33:24.996Z,26.97
2023-07-14T12:35:45.817Z,26.54
2023-07-14T12:38:21.280Z,26.01
2023-07-14T12:40:42.968Z,26.71
2023-07-14T12:43:07.988Z,26.47
2023-07-14T12:45:28.958Z,26.76
2023-07-14T12:47:53.422Z,26.91
2023-07-14T12:50:20.586Z,26.44
2023-07-14T12:52:42.191Z,26.87
2023-07-14T12:55:10.828Z,26.90
2023-07-14T12:57:33.293Z,27.36
2023-07-14T12:59:55.186Z,27.11
2023-07-14T13:02:16.845Z,28.73
2023-07-14T13:04:40.174Z,28.42
2023-07-14T13:07:14.576Z,28.17
2023-07-14T13:09:35.466Z,29.08
2023-07-14T13:11:56.793Z,30.18
2023-07-14T13:14:21.860Z,29.12
2023-07-14T13:16:42.449Z,29.18
2023-07-14T13:19:05.713Z,29.40
2023-07-14T13:21:42.108Z,30.34
2023-07-14T13:24:19.164Z,30.27
2023-07-14T13:27:07.116Z,30.37
2023-07-14T13:29:38.427Z,30.50
2023-07-14T13:32:06.137Z,30.52
2023-07-14T13:34:32.806Z,30.80
2023-07-14T13:36:54.068Z,30.63
2023-07-14T13:39:34.076Z,30.54
2023-07-14T13:41:58.828Z,31.18
2023-07-14T13:44:38.821Z,31.13
2023-07-14T13:47:19.011Z,31.45
2023-07-14T13:49:40.576Z,29.82
2023-07-14T13:52:00.998Z,30.25
2023-07-14T13:54:22.861Z,30.38
2023-07-14T13:56:44.611Z,31.12
2023-07-14T13:59:14.410Z,30.50
2023-07-14T14:01:35.146Z,30.74
2023-07-14T14:03:57.141Z,30.52
2023-07-14T14:06:18.635Z,30.06
2023-07-14T14:08:39.197Z,31.31
2023-07-14T14:10:59.980Z,30.41
2023-07-14T14:13:20.722Z,29.71
2023-07-14T14:15:47.480Z,30.32
2023-07-14T14:18:23.257Z,31.05
2023-07-14T14:20:43.922Z,30.14
2023-07-14T14:23:07.776Z,30.03
2023-07-14T14:25:29.034Z,29.72
2023-07-14T14:27:52.186Z,29.90
2023-07-14T14:30:14.540Z,30.10
2023-07-14T14:32:37.209Z,29.78
2023-07-14T14:34:59.880Z,29.80
2023-07-14T14:37:20.629Z,29.07
2023-07-14T14:39:41.577Z,28.95
2023-07-14T14:42:02.700Z,28.98
2023-07-14T14:44:23.793Z,29.85
2023-07-14T14:46:44.896Z,29.92
2023-07-14T14:49:13.515Z,30.18
2023-07-14T14:51:34.180Z,30.00
2023-07-14T14:53:54.748Z,30.09
2023-07-14T14:56:27.137Z,29.47
2023-07-14T14:58:51.864Z,28.95
2023-07-14T15:01:36.190Z,28.90
2023-07-14T15:03:56.639Z,28.92
2023-07-14T15:06:21.174Z,29.01
2023-07-14T15:08:41.672Z,28.11
2023-07-14T15:11:03.013Z,28.35
2023-07-14T15:13:29.830Z,28.37
2023-07-14T15:15:58.451Z,26.98
2023-07-14T15:18:19.608Z,26.89
2023-07-14T15:20:41.149Z,26.58
2023-07-14T15:23:04.598Z,26.24
2023-07-14T15:25:33.806Z,27.83
2023-07-14T15:27:55.086Z,26.99
2023-07-14T15:30:27.901Z,26.54
2023-07-14T15:32:49.107Z,25.96
2023-07-14T15:35:21.543Z,25.68
2023-07-14T15:37:42.404Z,25.94
2023-07-14T15:40:03.276Z,25.74
2023-07-14T15:42:23.690Z,25.82
2023-07-14T15:44:44.630Z,26.11
2023-07-14T15:47:05.698Z,25.97
2023-07-14T15:49:27.021Z,25.77
2023-07-14T15:51:48.586Z,25.93
2023-07-14T15:54:34.227Z,26.65
2023-07-14T15:56:55.030Z,25.46
2023-07-14T15:59:15.880Z,25.30
2023-07-14T16:01:36.427Z,25.77
2023-07-14T16:03:58.870Z,24.94
2023-07-14T16:06:20.085Z,24.97
2023-07-14T16:08:41.118Z,24.44
2023-07-14T16:11:09.914Z,24.99
2023-07-14T16:13:30.301Z,24.43
2023-07-14T16:15:50.956Z,24.76
2023-07-14T16:18:12.197Z,24.81
2023-07-14T16:20:33.411Z,24.94
2023-07-14T16:22:57.858Z,25.75
2023-07-14T16:25:22.064Z,25.78
2023-07-14T16:27:42.783Z,25.60
2023-07-14T16:30:03.868Z,25.95
2023-07-14T16:32:24.850Z,25.67
2023-07-14T16:34:45.766Z,24.65
2023-07-14T16:37:11.774Z,24.26
2023-07-14T16:39:34.434Z,24.13
2023-07-14T16:41:55.241Z,23.61
2023-07-14T16:44:17.297Z,24.32
2023-07-14T16:46:50.065Z,23.78
2023-07-14T16:49:10.846Z,23.12
2023-07-14T16:51:31.377Z,22.37
2023-07-14T16:53:52.200Z,22.44
2023-07-14T16:56:13.917Z,21.78
2023-07-14T16:58:34.374Z,21.98
2023-07-14T17:00:55.587Z,22.56
2023-07-14T17:03:23.601Z,22.81
2023-07-14T17:05:44.956Z,22.39
2023-07-14T17:08:15.872Z,22.47
2023-07-14T17:10:36.559Z,22.57
2023-07-14T17:13:03.578Z,22.57
2023-07-14T17:15:29.789Z,22.12
2023-07-14T17:17:50.593Z,22.49
2023-07-14T17:20:16.638Z,22.93
2023-07-14T17:22:39.257Z,22.63
2023-07-14T17:25:00.996Z,22.56
2023-07-14T17:27:21.542Z,22.52
2023-07-14T17:29:43.454Z,22.82
2023-07-14T17:32:05.998Z,23.13
2023-07-14T17:34:26.965Z,23.73
2023-07-14T17:36:47.433Z,23.91
2023-07-14T17:39:14.539Z,24.26
2023-07-14T17:41:35.217Z,24.38
2023-07-14T17:43:55.934Z,25.34
2023-07-14T17:46:16.786Z,25.51
2023-07-14T17:48:37.702Z,25.78
2023-07-14T17:51:02.439Z,26.18
2023-07-14T17:53:25.625Z,25.96
2023-07-14T17:55:46.696Z,26.48
2023-07-14T17:58:13.326Z,26.93
2023-07-14T18:00:34.426Z,26.11
2023-07-14T18:03:00.305Z,27.08
2023-07-14T18:05:24.433Z,26.82
2023-07-14T18:07:46.686Z,27.13
2023-07-14T18:10:07.519Z,27.49
2023-07-14T18:12:30.266Z,27.81
2023-07-14T18:14:50.805Z,28.21
2023-07-14T18:17:15.801Z,27.96
2023-07-14T18:19:36.537Z,28.65
2023-07-14T18:21:57.048Z,28.72
2023-07-14T18:24:33.343Z,28.40
2023-07-14T18:27:02.652Z,28.75
2023-07-14T18:29:23.302Z,28.58
2023-07-14T18:31:48.613Z,28.72
2023-07-14T18:34:14.999Z,29.35
2023-07-14T18:36:35.694Z,29.35
2023-07-14T18:38:56.478Z,29.34
2023-07-14T18:41:19.483Z,30.18
2023-07-14T18:43:40.784Z,31.03
2023-07-14T18:46:03.345Z,31.07
2023-07-14T18:48:29.208Z,31.71
2023-07-14T18:50:55.375Z,32.64
2023-07-14T18:53:21.276Z,32.19
2023-07-14T18:55:42.670Z,32.86
2023-07-14T18:58:03.998Z,33.81
2023-07-14T19:00:24.325Z,33.30
2023-07-14T19:02:44.716Z,33.32
2023-07-14T19:05:09.467Z,34.74
2023-07-14T19:07:33.063Z,34.69
2023-07-14T19:09:54.877Z,35.06
2023-07-14T19:12:20.661Z,34.94
2023-07-14T19:14:40.996Z,34.74
2023-07-14T19:17:01.746Z,35.37
2023-07-14T19:19:24.133Z,35.95
2023-07-14T19:21:45.610Z,35.92
2023-07-14T19:24:14.732Z,36.16
2023-07-14T19:26:35.657Z,36.53
2023-07-14T19:28:57.028Z,36.76
2023-07-14T19:31:30.857Z,37.65
2023-07-14T19:33:51.623Z,37.63
2023-07-14T19:36:12.446Z,38.18
2023-07-14T19:38:33.296Z,37.56
2023-07-14T19:40:57.983Z,38.05
2023-07-14T19:43:21.610Z,38.21
2023-07-14T19:45:42.684Z,38.54
2023-07-14T19:48:03.775Z,38.21
2023-07-14T19:50:24.791Z,38.79
2023-07-14T19:52:50.744Z,39.15
2023-07-14T19:55:17.822Z,39.15
2023-07-14T19:57:38.366Z,39.33
2023-07-14T19:59:59.107Z,39.12
2023-07-14T20:02:29.843Z,40.09
2023-07-14T20:04:50.880Z,40.49
2023-07-14T20:07:12.682Z,41.00
2023-07-14T20:09:33.259Z,40.83
2023-07-14T20:11:53.848Z,40.77
2023-07-14T20:14:29.894Z,41.61
2023-07-14T20:16:50.531Z,41.22
2023-07-14T20:19:11.253Z,41.30
2023-07-14T20:21:32.916Z,41.71
2023-07-14T20:23:55.943Z,41.93
2023-07-14T20:26:19.575Z,42.16
2023-07-14T20:28:40.065Z,42.50
2023-07-14T20:31:02.760Z,42.84
2023-07-14T20:33:23.869Z,43.42
2023-07-14T20:35:44.619Z,43.68
2023-07-14T20:38:15.852Z,43.93
2023-07-14T20:40:36.331Z,43.42
2023-07-14T20:42:59.996Z,43.84
2023-07-14T20:45:22.215Z,44.47
2023-07-14T20:47:45.481Z,44.63
2023-07-14T20:50:08.195Z,44.60
2023-07-14T20:55:46.615Z,44.85
2023-07-14T20:58:13.248Z,45.42
2023-07-14T21:00:34.460Z,45.35
2023-07-14T21:02:55.910Z,45.29
2023-07-14T21:05:17.736Z,44.84
2023-07-14T21:07:38.797Z,45.12
2023-07-14T21:09:59.284Z,44.83
2023-07-14T21:12:23.775Z,44.76
2023-07-14T21:14:44.706Z,45.24
2023-07-14T21:17:12.975Z,45.57
2023-07-14T21:19:34.271Z,45.51
2023-07-14T21:21:55.258Z,45.90
2023-07-14T21:24:22.048Z,45.81
2023-07-14T21:26:43.668Z,46.28
2023-07-14T21:29:07.033Z,46.90
2023-07-14T21:31:40.089Z,46.34
2023-07-14T21:34:01.562Z,46.91
2023-07-14T21:36:22.084Z,46.55
2023-07-14T21:38:42.312Z,46.47
2023-07-14T21:41:04.685Z,47.24
2023-07-14T21:43:33.761Z,47.29
2023-07-14T21:45:54.434Z,46.86
2023-07-14T21:48:18.360Z,46.81
2023-07-14T21:50:39.029Z,46.80
2023-07-14T21:53:13.132Z,47.06
2023-07-14T21:55:35.967Z,47.16
2023-07-14T21:57:56.575Z,47.29
2023-07-14T22:00:18.089Z,47.45
2023-07-14T22:02:38.663Z,47.61
2023-07-14T22:04:59.479Z,47.01
2023-07-14T22:07:19.846Z,47.04
2023-07-14T22:09:41.034Z,47.13
2023-07-14T22:12:05.187Z,47.07
2023-07-14T22:14:25.935Z,46.65
2023-07-14T22:16:46.868Z,47.26
2023-07-14T22:19:11.351Z,47.29
2023-07-14T22:21:33.961Z,46.77
2023-07-14T22:23:54.530Z,46.92
2023-07-14T22:26:18.344Z,46.75
2023-07-14T22:28:39.777Z,47.15
2023-07-14T22:31:00.506Z,47.01
2023-07-14T22:33:23.973Z,47.19
2023-07-14T22:35:44.957Z,46.97
2023-07-14T22:38:11.085Z,46.75
2023-07-14T22:40:31.470Z,47.53
2023-07-14T22:42:52.171Z,47.38
2023-07-14T22:45:18.433Z,47.94
2023-07-14T22:47:39.309Z,47.92
2023-07-14T22:50:00.233Z,48.31
2023-07-14T22:52:21.260Z,48.51
2023-07-14T22:54:42.303Z,47.97
2023-07-14T22:57:05.165Z,48.02
2023-07-14T22:59:25.889Z,48.67
2023-07-14T23:01:48.023Z,48.13
2023-07-14T23:04:10.473Z,48.57
2023-07-14T23:06:31.220Z,48.62
2023-07-14T23:08:55.466Z,49.05
2023-07-14T23:11:20.143Z,48.91
2023-07-14T23:13:41.154Z,49.00
2023-07-14T23:16:03.252Z,49.35
2023-07-14T23:18:26.468Z,49.43
2023-07-14T23:20:49.794Z,49.05
2023-07-14T23:23:11.789Z,49.03
2023-07-14T23:25:32.124Z,49.67
2023-07-14T23:27:52.464Z,49.84
2023-07-14T23:30:14.529Z,49.18
2023-07-14T23:32:35.264Z,49.55
2023-07-14T23:34:55.971Z,49.67
2023-07-14T23:37:16.172Z,49.67
2023-07-14T23:39:37.577Z,49.36
2023-07-14T23:41:57.991Z,49.40
2023-07-14T23:44:20.549Z,49.58
2023-07-14T23:46:41.990Z,49.48
2023-07-14T23:49:03.536Z,50.58
2023-07-14T23:51:30.193Z,50.51
2023-07-14T23:53:51.421Z,50.35
2023-07-14T23:56:14.108Z,50.71
2023-07-14T23:58:35.064Z,50.54
